PPL (A) Pilot

 

Glückwünsche !!!

Matthias hat seine PPL (A) Ausbildung abgeschlossen und die Prüfung bestanden.

Happy landings !

 

Flugwetter Augsburg

[source: ADDS]
METAR
EDMA 042220Z AUTO VRB01KT 5000 // OVC150/// M02/M03 Q0989 =
TAF EDMA 041700Z 0418/0503 VRB03KT CAVOK BECMG 0500/0503 26008KT
TAF
TAF EDMA 041700Z 0418/0503 VRB03KT CAVOK BECMG 0500/0503 26008KT =
Cookies erleichtern die Bereitstellung unserer Dienste. Mit der Nutzung unserer Dienste erklären Sie sich damit einverstanden, dass wir Cookies verwenden.
Weitere Informationen Ok